• Join FlightAware (Why Join?)
  • Login
  • US Flag 
09:36PM EDT


 

Airport Tracker/Info


-or-


 

Live Flight TrackerFlight Track Log ✈ SWR1957 ✈ 10-Jun-2012 ✈ LEBL / BCN - LSZH / ZRH

Flight Track Log - Related Links

Times and Time Zones

All times are in EDT time to prevent confusion due to time zone crossing. See the SWR1957 flight status page for this flight to view local times or setup timezone preferences in your user account.

Time Position Orientation Groundspeed Altitude Reporting Facility
EDT Latitude Longitude Course Direction KTS MPH feet Rate Location/Type
02:13PM 41.7568 2.5050 35° Northeast  Level Estimated
02:14PM 41.8511 2.5933 35° Northeast  Level Estimated
02:15PM 41.9453 2.6820 35° Northeast  Level Estimated
02:16PM 42.0394 2.7709 35° Northeast  Level Estimated
02:17PM 42.1335 2.8601 35° Northeast  Level Estimated
02:18PM 42.2275 2.9495 35° Northeast  Level Estimated
02:19PM 42.3214 3.0392 35° Northeast  Level Estimated
02:20PM 42.4153 3.1292 35° Northeast  Level Estimated
02:21PM 42.5091 3.2195 35° Northeast  Level Estimated
02:22PM 42.6028 3.3100 35° Northeast  Level Estimated
02:23PM 42.6964 3.4008 36° Northeast  Level Estimated
02:24PM 42.7900 3.4918 36° Northeast  Level Estimated
02:25PM 42.8835 3.5832 36° Northeast  Level Estimated
02:26PM 42.9769 3.6748 36° Northeast  Level Estimated
02:27PM 43.0703 3.7667 36° Northeast  Level Estimated
02:28PM 43.1636 3.8589 36° Northeast  Level Estimated
02:29PM 43.2568 3.9513 36° Northeast  Level Estimated
02:30PM 43.3499 4.0441 36° Northeast  Level Estimated
02:31PM 43.4430 4.1371 36° Northeast  Level Estimated
02:32PM 43.5359 4.2304 36° Northeast  Level Estimated
02:33PM 43.6288 4.3240 36° Northeast  Level Estimated
02:34PM 43.7217 4.4179 36° Northeast  Level Estimated
02:35PM 43.8144 4.5121 36° Northeast  Level Estimated
02:36PM 43.9071 4.6066 36° Northeast  Level Estimated
02:37PM 43.9997 4.7013 36° Northeast  Level Estimated
02:38PM 44.0922 4.7964 36° Northeast  Level Estimated
02:39PM 44.1846 4.8917 37° Northeast  Level Estimated
02:40PM 44.2770 4.9874 37° Northeast  Level Estimated
02:41PM 44.3693 5.0834 37° Northeast  Level Estimated
02:42PM 44.4615 5.1796 37° Northeast  Level Estimated
02:43PM 44.5536 5.2762 37° Northeast  Level Estimated
02:44PM 44.6456 5.3731 37° Northeast  Level Estimated
02:45PM 44.7376 5.4703 37° Northeast  Level Estimated
02:46PM 44.8294 5.5678 37° Northeast  Level Estimated
02:47PM 44.9212 5.6656 37° Northeast  Level Estimated
02:48PM 45.0129 5.7637 37° Northeast  Level Estimated
02:49PM 45.1045 5.8621 37° Northeast  Level Estimated
02:50PM 45.1961 5.9609 37° Northeast  Level Estimated
02:51PM 45.2875 6.0599 37° Northeast  Level Estimated
02:52PM 45.3789 6.1593 37° Northeast  Level Estimated
02:53PM 45.4702 6.2590 38° Northeast  Level Estimated
02:54PM 45.5614 6.3591 38° Northeast  Level Estimated
02:55PM 45.6525 6.4594 38° Northeast  Level Estimated
02:56PM 45.7435 6.5601 38° Northeast  Level Estimated
02:57PM 45.8344 6.6611 38° Northeast  Level Estimated
02:58PM 45.9252 6.7625 38° Northeast  Level Estimated
02:59PM 46.0160 6.8641 38° Northeast  Level Estimated
03:00PM 46.1066 6.9661 38° Northeast  Level Estimated
03:01PM 46.1972 7.0685 38° Northeast  Level Estimated
03:02PM 46.2876 7.1712 38° Northeast  Level Estimated
03:03PM 46.3780 7.2742 38° Northeast  Level Estimated
03:04PM 46.4683 7.3776 38° Northeast  Level Estimated
03:05PM 46.5585 7.4813 38° Northeast  Level Estimated
03:06PM 46.6486 7.5853 38° Northeast  Level Estimated
03:07PM 46.7249 7.6738 39° Northeast  Level Estimated
03:08PM 46.8012 7.7626 39° Northeast  Level Estimated
03:09PM 46.8755 7.8494 39° Northeast  Level Estimated
03:10PM 46.9480 7.9344 39° Northeast  Level Estimated
03:11PM 47.0204 8.0196 39° Northeast  Level Estimated
03:12PM 47.0927 8.1050 39° Northeast  Level Estimated
03:13PM 47.1668 8.1928 39° Northeast  Level Estimated
03:14PM 47.2408 8.2808 39° Northeast  Level Estimated
03:15PM 47.3147 8.3690 39° Northeast  Level Estimated
03:16PM 47.3886 8.4576 39° Northeast  Level Estimated
03:17PM 47.4623 8.5463 39° Northeast  Level Estimated
03:18PM 47.5361 8.6353 219° Southwest  Level Estimated
03:19PM 47.4623 8.5463 39° Northeast  Level Estimated
03:20PM 47.5379 8.6375 219° Southwest  Level Estimated
03:21PM 47.4623 8.5463 39° Northeast  Level Estimated
03:22PM 47.5379 8.6375 219° Southwest  Level Estimated
03:23PM 47.4623 8.5463 39° Northeast  Level Estimated
03:24PM 47.5409 8.6411 219° Southwest  Level Estimated
03:25PM 47.4623 8.5463 39° Northeast  Level Estimated
03:26PM 47.5389 8.6387 219° Southwest  Level Estimated
03:27PM 47.4623 8.5463 39° Northeast  Level Estimated
03:28PM 47.5389 8.6387 219° Southwest  Level Estimated
03:29PM 47.4623 8.5463 39° Northeast  Level Estimated
03:30PM 47.5389 8.6387 219° Southwest  Level Estimated
03:31PM 47.4593 8.5426 39° Northeast  Level Estimated
03:32PM 47.5389 8.6387 219° Southwest  Level Estimated
03:33PM 47.4593 8.5426 39° Northeast  Level Estimated
03:34PM 47.5389 8.6387 219° Southwest  Level Estimated
03:35PM 47.4593 8.5426 39° Northeast  Level Estimated
03:36PM 47.5389 8.6387 219° Southwest  Level Estimated
03:37PM 47.4593 8.5426 39° Northeast  Level Estimated
03:38PM 47.5389 8.6387 219° Southwest  Level Estimated
03:39PM 47.4593 8.5426 219° Southwest  Level Estimated